Disclaimer

Please do not use the information listed here in-flight or in-navigation, as they are not provided to us by the airports but are provided by volunteers, so they might be outdated.

Search


Regions


Airport information page

Radio informations:
Tower (TWR) - 118.1 MHz
RDO - 5535 MHz
CXK CARRASCO RDO - 5451 MHz
Approach (APP) - 119.2 MHz

Airport informations:
Latitude: 34° 50' 18.30" S
Longitude: 056° 01' 50.90" W
Elevation: 105 feet - 32 meters
Operating hours: Remarks
Operating agency: Military-civil joint use airport
Timezone: UTC-3
Fuel: Jet A1, without icing nhibitor.

100/130 octane gasoline, leaded, MIL-L-5572F (GREEN)

Runway information:
01/19 - 7382 x 148 feet< - >2250 x 45 meters
06/24 - 10499 x 148 feet< - >3200 x 45 meters
10/28 - 5577 x 148 feet< - >1700 x 45 meters

Recent METARs:
SUMU 190800Z 35006KT CAVOK 11/06 Q1016 NOSIG
SUMU 190800Z 35006KT CAVOK 11/06 Q1016 NOSIG
SUMU 190900Z 01006KT CAVOK 11/06 Q1016 NOSIG

Airport on the map: